< Typhoon 199213 1992 Season Typhoon 199215 >
Typhoon 199214 (LOIS)
General InformationTrack Information on Google MapsDetailed Wind InformationList of All Images || Disaster Info.ResourceGoogle EarthGE AnimationAtom FeedGeoJSON
Detalied Best Track (Time Zone = UTC)
Year Month Day Hour Lat. Long. Pressure (hPa) Wind (kt) Class Image Chart
1992 8 14 06 15.0 128.0 1002 0 2 Image Chart
1992 8 14 12 15.0 128.0 1002 0 2 Image Chart
1992 8 14 18 15.5 128.5 1002 0 2 Image Chart
1992 8 15 00 16.0 129.0 1002 0 2 Image Chart
1992 8 15 06 16.4 129.3 1002 0 2 Image Chart
1992 8 15 12 16.7 129.6 1002 0 2 Image Chart
1992 8 15 18 17.1 130.0 1002 0 2 Image Chart
1992 8 16 00 17.5 130.5 1002 0 2 Image Chart
1992 8 16 06 17.5 131.3 1002 0 2 Image Chart
1992 8 16 12 17.8 133.5 1000 0 2 Image Chart
1992 8 16 18 18.2 134.2 1000 0 2 Image Chart
1992 8 17 00 18.5 134.6 1000 0 2 Image Chart
1992 8 17 06 18.7 134.9 1000 0 2 Image Chart
1992 8 17 12 18.9 135.4 1000 0 2 Image Chart
1992 8 17 18 19.3 135.9 1000 0 2 Image Chart
1992 8 18 00 20.0 136.3 998 0 2 Image Chart
1992 8 18 06 20.9 137.2 998 0 2 Image Chart
1992 8 18 12 21.8 137.6 998 0 2 Image Chart
1992 8 18 18 22.8 137.9 998 0 2 Image Chart
1992 8 19 00 24.1 138.5 998 0 2 Image Chart
1992 8 19 06 25.0 139.0 996 35 3 Image Chart
1992 8 19 12 26.0 139.7 996 35 3 Image Chart
1992 8 19 18 27.0 140.6 996 35 3 Image Chart
1992 8 20 00 28.1 141.5 996 35 3 Image Chart
1992 8 20 06 28.7 142.7 996 35 3 Image Chart
1992 8 20 12 29.5 144.0 996 35 3 Image Chart
1992 8 20 18 30.5 145.3 996 35 3 Image Chart
1992 8 21 00 32.5 147.0 998 0 2 Image Chart
1992 8 21 06 34.5 149.0 1000 0 2 Image Chart
1992 8 21 12 36.5 150.3 1000 0 2 Image Chart
1992 8 21 18 38.0 152.0 1000 0 6 Image Chart
1992 8 22 00 39.5 153.5 1004 0 6 Image Chart
1992 8 22 06 40.0 155.5 1004 0 6 Image Chart
1992 8 22 12 40.5 157.0 1004 0 6 Image Chart
1992 8 22 18 41.0 158.5 1006 0 6 Image Chart
1992 8 23 00 41.0 159.5 1006 0 6 Image Chart
1992 8 23 06 41.0 161.0 1006 0 6 Image Chart
1992 8 23 12 41.5 162.0 1008 0 6 Image Chart
1992 8 23 18 42.0 163.0 1008 0 6 Image Chart
1992 8 24 00 42.5 164.0 1008 0 6 Image Chart
1992 8 24 06 43.5 167.5 1008 0 6 Image Chart
1992 8 24 12 44.0 170.0 1008 0 6 Image Chart
1992 8 24 18 44.0 172.0 1008 0 6 Image Chart
1992 8 25 00 43.5 174.5 1008 0 6 Image Chart
1992 8 25 06 43.5 177.5 1006 0 6 Image Chart
1992 8 25 12 42.5 180.0 1006 0 6 Image Chart
1992 8 25 18 42.0 182.0 1006 0 6 Image Chart
Japan Meteorological Agency Best Track Data | Correction Date : 1992-12-25
< Typhoon 199213 1992 Season Typhoon 199215 >

Help